createdAt,value
2018-06-02T00:00:03.920Z,3.92
2018-06-02T00:01:09.695Z,3.33
2018-06-02T00:02:15.456Z,3.42
2018-06-02T00:03:21.214Z,3.70
2018-06-02T00:04:27.020Z,3.55
2018-06-02T00:05:32.786Z,3.60
2018-06-02T00:06:38.556Z,4.00
2018-06-02T00:07:44.427Z,4.20
2018-06-02T00:08:50.182Z,3.75
2018-06-02T00:09:56.754Z,3.30
2018-06-02T00:11:02.515Z,3.97
2018-06-02T00:12:08.263Z,3.40
2018-06-02T00:13:14.253Z,3.80
2018-06-02T00:14:20.026Z,3.47
2018-06-02T00:15:25.808Z,3.42
2018-06-02T00:16:31.555Z,3.37
2018-06-02T00:17:38.185Z,3.20
2018-06-02T00:18:43.949Z,3.10
2018-06-02T00:19:49.708Z,3.30
2018-06-02T00:20:55.503Z,3.60
2018-06-02T00:22:01.263Z,3.25
2018-06-02T00:23:07.031Z,2.90
2018-06-02T00:24:12.459Z,3.00
2018-06-02T00:25:18.223Z,3.08
2018-06-02T00:26:23.998Z,3.20
2018-06-02T00:27:29.756Z,3.05
2018-06-02T00:28:35.802Z,3.10
2018-06-02T00:29:41.558Z,3.08
2018-06-02T00:30:47.390Z,2.85
2018-06-02T00:31:53.172Z,3.15
2018-06-02T00:32:58.950Z,3.25
2018-06-02T00:34:05.412Z,3.08
2018-06-02T00:35:11.202Z,3.20
2018-06-02T00:36:16.956Z,3.15
2018-06-02T00:37:22.843Z,2.85
2018-06-02T00:38:29.359Z,2.60
2018-06-02T00:39:35.130Z,3.12
2018-06-02T00:40:41.656Z,2.60
2018-06-02T00:41:48.216Z,2.72
2018-06-02T00:42:54.010Z,2.97
2018-06-02T00:43:59.851Z,3.05
2018-06-02T00:45:05.267Z,3.28
2018-06-02T00:46:11.792Z,2.83
2018-06-02T00:47:17.555Z,2.70
2018-06-02T00:48:23.342Z,2.75
2018-06-02T00:49:29.100Z,2.30
2018-06-02T00:50:34.863Z,2.75
2018-06-02T00:51:40.628Z,3.37
2018-06-02T00:52:47.160Z,2.70
2018-06-02T00:53:52.936Z,2.78
2018-06-02T00:55:09.639Z,2.12
2018-06-02T00:56:16.409Z,1.87
2018-06-02T00:57:22.926Z,2.40
2018-06-02T00:58:28.680Z,2.25
2018-06-02T00:59:35.342Z,2.22
2018-06-02T01:00:42.611Z,2.70
2018-06-02T01:01:48.192Z,2.35
2018-06-02T01:02:53.955Z,2.20
2018-06-02T01:03:59.722Z,1.95
2018-06-02T01:05:05.174Z,1.90
2018-06-02T01:06:10.940Z,2.08
2018-06-02T01:07:18.197Z,1.83
2018-06-02T01:08:23.950Z,1.80
2018-06-02T01:09:29.704Z,2.00
2018-06-02T01:10:36.352Z,1.30
2018-06-02T01:11:48.880Z,1.70
2018-06-02T01:12:54.649Z,1.70
2018-06-02T01:14:00.415Z,1.62
2018-06-02T01:15:05.877Z,1.58
2018-06-02T01:16:13.083Z,1.48
2018-06-02T01:17:18.845Z,1.62
2018-06-02T01:18:24.616Z,1.70
2018-06-02T01:19:30.371Z,1.62
2018-06-02T01:20:36.960Z,1.85
2018-06-02T01:21:42.744Z,2.33
2018-06-02T01:22:48.515Z,1.30
2018-06-02T01:23:55.115Z,1.15
2018-06-02T01:25:00.881Z,1.80
2018-06-02T01:26:06.673Z,1.15
2018-06-02T01:27:13.231Z,1.52
2018-06-02T01:28:19.747Z,1.50
2018-06-02T01:29:25.519Z,1.30
2018-06-02T01:30:31.278Z,1.85
2018-06-02T01:31:37.799Z,1.37
2018-06-02T01:32:43.593Z,1.50
2018-06-02T01:33:50.117Z,1.30
2018-06-02T01:34:55.892Z,1.27
2018-06-02T01:36:01.652Z,1.20
2018-06-02T01:37:07.412Z,1.20
2018-06-02T01:38:13.232Z,1.40
2018-06-02T01:39:18.983Z,1.10
2018-06-02T01:40:24.767Z,1.20
2018-06-02T01:41:30.563Z,1.55
2018-06-02T01:42:36.100Z,1.65
2018-06-02T01:43:41.886Z,1.45
2018-06-02T01:44:47.648Z,1.55
2018-06-02T01:45:54.171Z,1.10
2018-06-02T01:46:59.980Z,1.00
2018-06-02T01:48:05.400Z,1.12
2018-06-02T01:49:11.177Z,1.23
2018-06-02T01:50:16.927Z,1.30
2018-06-02T01:51:22.684Z,1.10
2018-06-02T01:52:28.439Z,1.20
2018-06-02T01:53:34.200Z,1.40
2018-06-02T01:54:40.747Z,1.10
2018-06-02T01:55:47.279Z,1.40
2018-06-02T01:56:53.035Z,1.20
2018-06-02T01:57:58.807Z,1.10
2018-06-02T01:59:04.584Z,1.20
2018-06-02T02:00:10.394Z,1.37
2018-06-02T02:01:16.911Z,1.15
2018-06-02T02:02:22.668Z,1.20
2018-06-02T02:03:29.991Z,1.00
2018-06-02T02:04:35.762Z,1.00
2018-06-02T02:05:41.570Z,1.27
2018-06-02T02:06:47.339Z,1.50
2018-06-02T02:07:53.129Z,1.23
2018-06-02T02:08:58.887Z,1.45
2018-06-02T02:10:04.492Z,1.10
2018-06-02T02:11:10.268Z,1.30
2018-06-02T02:12:16.217Z,1.48
2018-06-02T02:13:21.963Z,1.33
2018-06-02T02:14:27.722Z,1.42
2018-06-02T02:15:33.474Z,1.50
2018-06-02T02:16:39.255Z,1.50
2018-06-02T02:17:45.812Z,1.80
2018-06-02T02:18:51.568Z,2.05
2018-06-02T02:19:58.100Z,1.48
2018-06-02T02:21:03.863Z,1.70
2018-06-02T02:22:10.426Z,1.50
2018-06-02T02:23:16.948Z,1.75
2018-06-02T02:24:23.026Z,1.75
2018-06-02T02:25:29.554Z,1.67
2018-06-02T02:26:35.354Z,1.65
2018-06-02T02:27:41.136Z,1.62
2018-06-02T02:28:46.890Z,1.80
2018-06-02T02:29:52.666Z,1.50
2018-06-02T02:30:59.186Z,1.60
2018-06-02T02:32:04.951Z,1.33
2018-06-02T02:33:11.524Z,2.00
2018-06-02T02:34:18.044Z,2.10
2018-06-02T02:35:23.855Z,2.30
2018-06-02T02:36:29.782Z,2.37
2018-06-02T02:37:36.303Z,3.15
2018-06-02T02:38:42.718Z,2.72
2018-06-02T02:39:48.478Z,2.65
2018-06-02T02:40:54.233Z,2.95
2018-06-02T02:41:59.995Z,2.87
2018-06-02T02:43:05.765Z,3.30
2018-06-02T02:44:12.312Z,3.50
2018-06-02T02:45:18.864Z,3.70
2018-06-02T02:46:24.616Z,3.35
2018-06-02T02:47:31.139Z,4.30
2018-06-02T02:48:36.907Z,3.22
2018-06-02T02:49:42.692Z,4.70
2018-06-02T02:50:48.459Z,3.85
2018-06-02T02:51:54.219Z,4.90
2018-06-02T02:53:00.031Z,5.35
2018-06-02T02:54:05.786Z,5.18
2018-06-02T02:55:11.566Z,4.85
2018-06-02T02:56:18.287Z,5.12
2018-06-02T02:57:24.047Z,6.00
2018-06-02T02:58:29.828Z,5.70
2018-06-02T02:59:35.583Z,5.03
2018-06-02T03:00:41.373Z,6.03
2018-06-02T03:01:47.116Z,6.62
2018-06-02T03:02:52.876Z,5.93
2018-06-02T03:03:59.423Z,5.40
2018-06-02T03:05:05.180Z,6.37
2018-06-02T03:06:11.735Z,6.15
2018-06-02T03:07:17.487Z,6.35
2018-06-02T03:08:24.012Z,7.03
2018-06-02T03:09:29.784Z,6.85
2018-06-02T03:10:36.319Z,6.37
2018-06-02T03:11:42.098Z,7.07
2018-06-02T03:12:48.376Z,6.55
2018-06-02T03:13:54.123Z,7.47
2018-06-02T03:14:59.884Z,7.90
2018-06-02T03:16:05.638Z,7.28
2018-06-02T03:17:11.412Z,7.35
2018-06-02T03:18:17.937Z,7.55
2018-06-02T03:19:23.694Z,7.80
2018-06-02T03:20:29.461Z,6.87
2018-06-02T03:21:35.979Z,7.55
2018-06-02T03:22:41.790Z,8.85
2018-06-02T03:23:47.543Z,7.55
2018-06-02T03:24:53.295Z,7.93
2018-06-02T03:25:59.054Z,8.15
2018-06-02T03:27:04.809Z,8.50
2018-06-02T03:28:10.599Z,8.40
2018-06-02T03:29:16.359Z,8.23
2018-06-02T03:30:22.539Z,8.63
2018-06-02T03:31:29.053Z,8.40
2018-06-02T03:32:34.825Z,8.23
2018-06-02T03:33:40.611Z,8.38
2018-06-02T03:34:47.128Z,8.20
2018-06-02T03:35:52.888Z,7.97
2018-06-02T03:36:58.643Z,8.95
2018-06-02T03:38:04.608Z,8.68
2018-06-02T03:39:10.387Z,8.73
2018-06-02T03:40:16.155Z,8.38
2018-06-02T03:41:22.679Z,8.65
2018-06-02T03:42:28.517Z,10.00
2018-06-02T03:43:33.982Z,7.85
2018-06-02T03:44:39.833Z,8.75
2018-06-02T03:45:45.666Z,8.85
2018-06-02T03:46:51.567Z,8.05
2018-06-02T03:47:57.398Z,8.60
2018-06-02T03:49:03.211Z,8.48
2018-06-02T03:50:09.008Z,8.15
2018-06-02T03:51:15.546Z,7.80
2018-06-02T03:52:21.316Z,9.00
2018-06-02T03:53:27.091Z,7.95
2018-06-02T03:54:33.611Z,9.00
2018-06-02T03:55:39.390Z,8.50
2018-06-02T03:56:45.142Z,8.98
2018-06-02T03:57:50.902Z,9.10
2018-06-02T03:58:57.579Z,9.05
2018-06-02T04:00:03.009Z,9.18
2018-06-02T04:01:08.903Z,9.27
2018-06-02T04:02:14.676Z,9.57
2018-06-02T04:03:20.439Z,8.55
2018-06-02T04:04:26.683Z,9.77
2018-06-02T04:05:34.000Z,8.30
2018-06-02T04:06:39.778Z,8.93
2018-06-02T04:07:45.544Z,8.80
2018-06-02T04:08:52.067Z,9.75
2018-06-02T04:09:57.823Z,9.45
2018-06-02T04:11:03.586Z,9.52
2018-06-02T04:12:10.139Z,9.32
2018-06-02T04:13:16.687Z,9.43
2018-06-02T04:14:23.221Z,9.30
2018-06-02T04:15:29.114Z,8.43
2018-06-02T04:16:35.648Z,9.65
2018-06-02T04:17:41.202Z,9.48
2018-06-02T04:18:47.737Z,9.38
2018-06-02T04:19:53.506Z,9.30
2018-06-02T04:21:00.033Z,9.35
2018-06-02T04:22:05.792Z,8.88
2018-06-02T04:23:11.600Z,9.05
2018-06-02T04:24:17.365Z,10.10
2018-06-02T04:25:23.682Z,9.10
2018-06-02T04:26:29.443Z,9.73
2018-06-02T04:27:35.213Z,8.90
2018-06-02T04:28:41.023Z,9.90
2018-06-02T04:29:46.792Z,10.20
2018-06-02T04:30:53.324Z,10.20
2018-06-02T04:31:59.104Z,9.38
2018-06-02T04:34:23.898Z,10.02
2018-06-02T04:35:30.435Z,9.50
2018-06-02T04:36:36.202Z,10.10
2018-06-02T04:37:42.731Z,9.50
2018-06-02T04:38:48.491Z,9.18
2018-06-02T04:39:55.057Z,9.65
2018-06-02T04:41:00.816Z,8.48
2018-06-02T04:42:07.332Z,8.70
2018-06-02T04:43:13.118Z,9.07
2018-06-02T04:44:19.901Z,8.73
2018-06-02T04:45:25.714Z,10.13
2018-06-02T04:46:32.299Z,9.20
2018-06-02T04:47:38.087Z,9.90
2018-06-02T04:48:43.861Z,10.07
2018-06-02T04:49:50.625Z,9.52
2018-06-02T04:50:57.208Z,8.95
2018-06-02T04:52:04.223Z,8.90
2018-06-02T04:53:09.973Z,8.82
2018-06-02T04:54:15.739Z,8.98
2018-06-02T04:55:22.272Z,9.27
2018-06-02T04:56:28.559Z,9.25
2018-06-02T04:57:35.106Z,9.65
2018-06-02T04:58:40.863Z,8.73
2018-06-02T04:59:47.391Z,10.00
2018-06-02T05:00:53.172Z,8.90
2018-06-02T05:01:59.735Z,9.88
2018-06-02T05:03:05.592Z,9.70
2018-06-02T05:04:11.339Z,8.68
2018-06-02T05:05:17.099Z,9.27
2018-06-02T05:06:22.859Z,9.23
2018-06-02T05:07:28.703Z,9.20
2018-06-02T05:08:34.455Z,8.85
2018-06-02T05:09:40.238Z,9.23
2018-06-02T05:10:46.001Z,9.10
2018-06-02T05:11:51.850Z,9.35
2018-06-02T05:12:57.654Z,9.50
2018-06-02T05:14:04.219Z,9.57
2018-06-02T05:15:10.761Z,9.77
2018-06-02T05:16:16.727Z,9.35
2018-06-02T05:17:22.498Z,9.43
2018-06-02T05:18:28.286Z,9.93
2018-06-02T05:19:34.809Z,9.75
2018-06-02T05:20:40.761Z,8.60
2018-06-02T05:21:46.518Z,9.82
2018-06-02T05:22:53.819Z,10.10
2018-06-02T05:24:00.372Z,9.93
2018-06-02T05:25:06.157Z,9.63
2018-06-02T05:26:11.926Z,9.27
2018-06-02T05:27:17.681Z,9.65
2018-06-02T05:28:23.488Z,9.70
2018-06-02T05:29:29.267Z,9.82
2018-06-02T05:30:35.040Z,10.80
2018-06-02T05:31:41.567Z,9.93
2018-06-02T05:32:48.110Z,10.13
2018-06-02T05:33:53.893Z,10.40
2018-06-02T05:35:00.455Z,10.02
2018-06-02T05:36:06.988Z,9.98
2018-06-02T05:37:12.752Z,9.15
2018-06-02T05:38:19.279Z,9.48
2018-06-02T05:39:25.053Z,10.05
2018-06-02T05:40:30.298Z,9.65
2018-06-02T05:41:36.819Z,9.80
2018-06-02T05:42:42.584Z,9.38
2018-06-02T05:43:49.130Z,13.02
2018-06-02T05:44:54.916Z,10.40
2018-06-02T05:46:00.821Z,9.68
2018-06-02T05:47:07.112Z,9.35
2018-06-02T05:48:12.879Z,9.70
2018-06-02T05:49:18.641Z,9.65
2018-06-02T05:50:24.685Z,9.25
2018-06-02T05:51:30.468Z,9.85
2018-06-02T05:52:37.027Z,9.10
2018-06-02T05:53:43.558Z,9.25
2018-06-02T05:54:49.415Z,9.00
2018-06-02T05:55:54.839Z,8.75
2018-06-02T05:57:00.635Z,10.15
2018-06-02T05:58:06.398Z,9.32
2018-06-02T05:59:12.187Z,8.68
2018-06-02T06:00:18.738Z,10.30
2018-06-02T06:01:24.588Z,9.10
2018-06-02T06:02:31.175Z,9.05
2018-06-02T06:03:36.982Z,9.52
2018-06-02T06:04:42.769Z,9.77
2018-06-02T06:05:48.528Z,9.68
2018-06-02T06:06:54.335Z,8.85
2018-06-02T06:08:00.298Z,9.50
2018-06-02T06:09:06.039Z,9.60
2018-06-02T06:10:11.804Z,9.70
2018-06-02T06:11:17.574Z,9.27
2018-06-02T06:12:23.336Z,9.82
2018-06-02T06:13:29.895Z,9.45
2018-06-02T06:14:36.427Z,9.40
2018-06-02T06:15:42.213Z,8.20
2018-06-02T06:16:47.979Z,9.10
2018-06-02T06:17:53.759Z,8.20
2018-06-02T06:18:59.545Z,9.23
2018-06-02T06:20:04.996Z,9.43
2018-06-02T06:21:10.752Z,8.90
2018-06-02T06:22:16.522Z,10.07
2018-06-02T06:23:23.809Z,10.15
2018-06-02T06:24:31.121Z,9.10
2018-06-02T06:25:36.927Z,10.63
2018-06-02T06:26:42.700Z,9.00
2018-06-02T06:27:48.464Z,10.10
2018-06-02T06:28:54.244Z,10.23
2018-06-02T06:30:00.046Z,10.27
2018-06-02T06:31:05.587Z,10.68
2018-06-02T06:32:11.410Z,9.40
2018-06-02T06:33:17.179Z,10.23
2018-06-02T06:34:22.955Z,10.80
2018-06-02T06:35:28.949Z,10.40
2018-06-02T06:36:34.708Z,9.85
2018-06-02T06:37:40.488Z,10.70
2018-06-02T06:38:47.031Z,11.27
2018-06-02T06:39:52.808Z,10.70
2018-06-02T06:40:59.099Z,9.75
2018-06-02T06:42:04.885Z,10.82
2018-06-02T06:43:11.431Z,11.20
2018-06-02T06:44:17.211Z,11.50
2018-06-02T06:45:23.003Z,10.63
2018-06-02T06:46:28.866Z,10.85
2018-06-02T06:47:34.795Z,11.65
2018-06-02T06:48:40.586Z,10.15
2018-06-02T06:49:47.117Z,10.80
2018-06-02T06:50:52.888Z,11.10
2018-06-02T06:51:58.689Z,10.70
2018-06-02T06:53:04.464Z,11.32
2018-06-02T06:54:10.007Z,10.38
2018-06-02T06:55:16.522Z,11.20
2018-06-02T06:56:22.286Z,9.82
2018-06-02T06:57:28.075Z,10.18
2018-06-02T06:58:33.841Z,9.85
2018-06-02T06:59:39.619Z,10.10
2018-06-02T07:00:46.166Z,10.07
2018-06-02T07:01:51.934Z,9.15
2018-06-02T07:02:58.491Z,9.88
2018-06-02T07:04:05.045Z,9.73
2018-06-02T07:05:11.635Z,10.75
2018-06-02T07:06:17.607Z,9.77
2018-06-02T07:07:23.384Z,10.10
2018-06-02T07:08:29.182Z,10.57
2018-06-02T07:09:34.955Z,10.50
2018-06-02T07:10:40.515Z,9.90
2018-06-02T07:11:47.076Z,9.73
2018-06-02T07:12:53.032Z,10.40
2018-06-02T07:13:59.699Z,11.23
2018-06-02T07:15:05.900Z,9.77
2018-06-02T07:16:11.884Z,10.65
2018-06-02T07:17:17.651Z,9.90
2018-06-02T07:18:23.439Z,10.50
2018-06-02T07:19:29.350Z,10.50
2018-06-02T07:20:35.126Z,10.23
2018-06-02T07:21:40.744Z,11.32
2018-06-02T07:22:46.782Z,12.40
2018-06-02T07:23:52.564Z,11.88
2018-06-02T07:24:59.146Z,11.40
2018-06-02T07:26:05.359Z,11.02
2018-06-02T07:27:11.143Z,11.30
2018-06-02T07:28:17.726Z,11.73
2018-06-02T07:29:24.492Z,10.95
2018-06-02T07:30:30.489Z,10.40
2018-06-02T07:31:37.040Z,11.02
2018-06-02T07:32:42.824Z,10.98
2018-06-02T07:33:49.430Z,10.27
2018-06-02T07:34:55.237Z,11.30
2018-06-02T07:36:00.899Z,11.95
2018-06-02T07:37:07.464Z,11.77
2018-06-02T07:38:13.334Z,10.98
2018-06-02T07:39:19.977Z,11.55
2018-06-02T07:40:25.794Z,11.73
2018-06-02T07:41:31.673Z,11.75
2018-06-02T07:42:37.442Z,10.93
2018-06-02T07:43:44.018Z,10.85
2018-06-02T07:44:50.557Z,11.75
2018-06-02T07:45:57.836Z,10.65
2018-06-02T07:47:03.643Z,12.15
2018-06-02T07:48:09.428Z,11.95
2018-06-02T07:49:15.992Z,12.73
2018-06-02T07:50:22.543Z,11.10
2018-06-02T07:51:29.082Z,12.25
2018-06-02T07:52:34.844Z,11.27
2018-06-02T07:53:41.407Z,11.75
2018-06-02T07:54:47.031Z,11.70
2018-06-02T07:55:52.828Z,11.75
2018-06-02T07:56:58.768Z,12.90
2018-06-02T07:58:04.576Z,12.00
2018-06-02T07:59:11.113Z,11.18
2018-06-02T08:00:16.900Z,12.80
2018-06-02T08:01:22.719Z,11.00
2018-06-02T08:02:28.492Z,10.93
2018-06-02T08:03:34.312Z,12.27
2018-06-02T08:04:40.853Z,10.90
2018-06-02T08:05:46.626Z,11.07
2018-06-02T08:06:52.427Z,11.60
2018-06-02T08:07:58.190Z,11.57
2018-06-02T08:09:04.479Z,11.30
2018-06-02T08:10:10.323Z,11.75
2018-06-02T08:11:16.110Z,10.50
2018-06-02T08:12:22.670Z,11.23
2018-06-02T08:13:29.044Z,12.70
2018-06-02T08:14:35.620Z,11.73
2018-06-02T08:15:42.180Z,11.90
2018-06-02T08:16:48.727Z,10.65
2018-06-02T08:17:54.495Z,10.77
2018-06-02T08:19:01.063Z,10.65
2018-06-02T08:20:07.439Z,11.55
2018-06-02T08:21:13.304Z,10.77
2018-06-02T08:22:19.084Z,10.13
2018-06-02T08:23:24.864Z,11.05
2018-06-02T08:24:30.632Z,11.52
2018-06-02T08:25:36.507Z,10.13
2018-06-02T08:26:42.304Z,10.65
2018-06-02T08:27:48.267Z,9.73
2018-06-02T08:28:54.106Z,11.48
2018-06-02T08:29:59.934Z,10.55
2018-06-02T08:31:05.846Z,10.90
2018-06-02T08:32:12.445Z,10.80
2018-06-02T08:33:19.322Z,10.40
2018-06-02T08:34:25.867Z,11.25
2018-06-02T08:35:31.787Z,11.70
2018-06-02T08:36:37.615Z,10.27
2018-06-02T08:37:43.439Z,10.35
2018-06-02T08:38:50.030Z,10.82
2018-06-02T08:39:55.800Z,10.45
2018-06-02T08:41:01.613Z,10.40
2018-06-02T08:42:08.332Z,9.60
2018-06-02T08:43:14.882Z,10.32
2018-06-02T08:44:23.014Z,10.13
2018-06-02T08:45:28.797Z,10.10
2018-06-02T08:46:35.009Z,12.30
2018-06-02T08:47:40.869Z,11.45
2018-06-02T08:48:46.650Z,9.68
2018-06-02T08:49:52.773Z,10.60
2018-06-02T08:50:59.348Z,11.75
2018-06-02T08:52:06.255Z,11.73
2018-06-02T08:53:12.081Z,12.32
2018-06-02T08:54:18.749Z,10.07
2018-06-02T08:55:24.688Z,13.10
2018-06-02T08:56:32.231Z,12.43
2018-06-02T08:57:38.765Z,12.85
2018-06-02T08:58:44.573Z,13.20
2018-06-02T08:59:51.143Z,13.75
2018-06-02T09:00:57.694Z,13.23
2018-06-02T09:02:04.228Z,13.13
2018-06-02T09:03:10.010Z,12.48
2018-06-02T09:04:16.587Z,13.62
2018-06-02T09:05:22.399Z,12.50
2018-06-02T09:06:28.411Z,13.40
2018-06-02T09:07:34.376Z,13.25
2018-06-02T09:08:40.938Z,12.25
2018-06-02T09:09:46.782Z,12.23
2018-06-02T09:10:53.355Z,11.02
2018-06-02T09:12:00.957Z,10.75
2018-06-02T09:13:07.524Z,11.35
2018-06-02T09:14:13.297Z,13.20
2018-06-02T09:15:20.149Z,13.85
2018-06-02T09:16:25.934Z,13.18
2018-06-02T09:17:32.615Z,12.40
2018-06-02T09:18:38.392Z,13.07
2018-06-02T09:19:44.468Z,12.85
2018-06-02T09:20:50.119Z,13.82
2018-06-02T09:21:56.888Z,14.13
2018-06-02T09:23:06.250Z,14.13
2018-06-02T09:24:12.912Z,14.15
2018-06-02T09:25:19.623Z,13.38
2018-06-02T09:26:25.626Z,12.80
2018-06-02T09:27:32.508Z,13.65
2018-06-02T09:28:38.661Z,14.20
2018-06-02T09:29:46.550Z,14.25
2018-06-02T09:30:52.598Z,13.45
2018-06-02T09:31:58.480Z,13.80
2018-06-02T09:33:06.103Z,14.65
2018-06-02T09:34:13.195Z,12.15
2018-06-02T09:35:20.135Z,12.50
2018-06-02T09:36:26.540Z,14.57
2018-06-02T09:37:38.406Z,14.98
2018-06-02T09:38:44.358Z,15.07
2018-06-02T09:39:51.432Z,15.80
2018-06-02T09:40:58.292Z,18.50
2018-06-02T09:42:05.066Z,17.52
2018-06-02T09:43:11.821Z,16.87
2018-06-02T09:44:18.536Z,19.20
2018-06-02T09:45:26.463Z,20.48
2018-06-02T09:46:34.538Z,18.50
2018-06-02T09:47:42.591Z,17.55
2018-06-02T09:48:49.442Z,18.05
2018-06-02T09:49:56.515Z,17.40
2018-06-02T09:51:03.285Z,16.92
2018-06-02T09:52:09.944Z,17.75
2018-06-02T09:53:16.099Z,17.12
2018-06-02T09:54:22.255Z,17.65
2018-06-02T09:55:28.874Z,15.40
2018-06-02T09:56:35.801Z,17.45
2018-06-02T09:57:42.243Z,16.98
2018-06-02T09:58:49.406Z,15.63
2018-06-02T09:59:55.561Z,16.35
2018-06-02T10:01:03.833Z,15.85
2018-06-02T10:02:10.382Z,16.73
2018-06-02T10:03:18.129Z,16.05
2018-06-02T10:04:24.164Z,17.05
2018-06-02T10:05:31.860Z,18.00
2018-06-02T10:06:37.860Z,15.52
2018-06-02T10:07:46.956Z,16.27
2018-06-02T10:08:52.787Z,16.42
2018-06-02T10:09:59.894Z,16.87
2018-06-02T10:11:08.103Z,16.52
2018-06-02T10:12:14.209Z,16.70
2018-06-02T10:13:20.079Z,15.68
2018-06-02T10:14:26.201Z,16.35
2018-06-02T10:15:32.019Z,15.85
2018-06-02T10:16:38.265Z,16.23
2018-06-02T10:17:44.185Z,17.25
2018-06-02T10:18:49.973Z,14.85
2018-06-02T10:19:56.618Z,14.45
2018-06-02T10:21:02.733Z,15.15
2018-06-02T10:22:08.906Z,14.40
2018-06-02T10:23:14.776Z,15.45
2018-06-02T10:24:22.242Z,14.40
2018-06-02T10:25:29.137Z,14.00
2018-06-02T10:26:35.174Z,15.00
2018-06-02T10:27:42.139Z,14.20
2018-06-02T10:28:48.612Z,12.85
2018-06-02T10:29:55.648Z,13.90
2018-06-02T10:31:01.608Z,13.85
2018-06-02T10:32:08.038Z,14.95
2018-06-02T10:33:14.090Z,14.87
2018-06-02T10:34:20.192Z,13.20
2018-06-02T10:35:26.825Z,12.90
2018-06-02T10:36:32.748Z,13.52
2018-06-02T10:37:38.689Z,13.23
2018-06-02T10:38:46.246Z,13.57
2018-06-02T10:39:54.496Z,12.95
2018-06-02T10:41:00.538Z,13.73
2018-06-02T10:42:06.738Z,13.45
2018-06-02T10:43:14.119Z,12.60
2018-06-02T10:44:19.912Z,13.60
2018-06-02T10:45:27.604Z,13.73
2018-06-02T10:46:34.579Z,13.00
2018-06-02T10:47:40.557Z,12.75
2018-06-02T10:48:46.357Z,12.37
2018-06-02T10:49:52.211Z,12.90
2018-06-02T10:50:58.225Z,12.45
2018-06-02T10:52:05.023Z,11.82
2018-06-02T10:53:11.469Z,12.85
2018-06-02T10:54:17.318Z,11.68
2018-06-02T10:55:23.270Z,12.13
2018-06-02T10:56:30.138Z,12.82
2018-06-02T10:57:36.288Z,12.30
2018-06-02T10:58:42.180Z,11.07
2018-06-02T10:59:48.102Z,12.00
2018-06-02T11:00:54.432Z,11.25
2018-06-02T11:02:00.859Z,11.35
2018-06-02T11:03:09.056Z,11.77
2018-06-02T11:04:15.719Z,10.05
2018-06-02T11:05:24.302Z,10.13
2018-06-02T11:06:30.696Z,9.60
2018-06-02T11:07:37.345Z,10.63
2018-06-02T11:08:45.478Z,9.93
2018-06-02T11:09:54.204Z,10.10
2018-06-02T11:11:01.286Z,10.98
2018-06-02T11:12:09.683Z,10.68
2018-06-02T11:13:16.727Z,9.70
2018-06-02T11:14:22.632Z,10.43
2018-06-02T11:15:28.607Z,10.43
2018-06-02T11:16:34.538Z,9.75
2018-06-02T11:17:42.186Z,10.40
2018-06-02T11:18:48.459Z,10.15
2018-06-02T11:19:54.610Z,9.13
2018-06-02T11:21:00.829Z,9.73
2018-06-02T11:22:06.867Z,8.23
2018-06-02T11:23:14.492Z,9.73
2018-06-02T11:24:21.431Z,9.70
2018-06-02T11:25:27.672Z,10.40
2018-06-02T11:26:33.820Z,10.85
2018-06-02T11:27:39.877Z,9.52
2018-06-02T11:28:46.137Z,10.88
2018-06-02T11:29:52.378Z,10.48
2018-06-02T11:30:58.468Z,10.75
2018-06-02T11:32:05.485Z,9.70
2018-06-02T11:33:11.707Z,10.60
2018-06-02T11:34:19.507Z,10.70
2018-06-02T11:35:26.533Z,9.48
2018-06-02T11:36:32.657Z,10.27
2018-06-02T11:37:39.457Z,10.52
2018-06-02T11:38:45.638Z,10.52
2018-06-02T11:39:51.785Z,10.25
2018-06-02T11:40:58.805Z,10.90
2018-06-02T11:42:05.002Z,10.52
2018-06-02T11:43:12.780Z,10.48
2018-06-02T11:44:18.896Z,10.15
2018-06-02T11:45:25.860Z,10.65
2018-06-02T11:46:33.034Z,10.52
2018-06-02T11:47:40.107Z,10.80
2018-06-02T11:48:46.637Z,11.07
2018-06-02T11:49:52.553Z,11.25
2018-06-02T11:51:00.353Z,12.52
2018-06-02T11:52:07.445Z,11.70
2018-06-02T11:53:13.317Z,11.43
2018-06-02T11:54:19.469Z,12.05
2018-06-02T11:55:25.720Z,12.00
2018-06-02T11:56:31.873Z,12.60
2018-06-02T11:57:37.926Z,12.48
2018-06-02T11:58:43.970Z,12.75
2018-06-02T11:59:50.021Z,13.62
2018-06-02T12:00:55.985Z,13.38
2018-06-02T12:02:02.207Z,14.05
2018-06-02T12:03:09.254Z,14.82
2018-06-02T12:04:15.890Z,13.10
2018-06-02T12:05:23.330Z,13.73
2018-06-02T12:06:29.241Z,13.85
2018-06-02T12:07:36.166Z,14.35
2018-06-02T12:08:42.362Z,13.43
2018-06-02T12:09:49.124Z,14.60
2018-06-02T12:10:56.389Z,13.18
2018-06-02T12:12:02.748Z,13.40
2018-06-02T12:13:10.825Z,14.25
2018-06-02T12:14:17.758Z,14.00
2018-06-02T12:15:23.838Z,14.48
2018-06-02T12:16:29.749Z,14.75
2018-06-02T12:17:37.706Z,15.93
2018-06-02T12:18:44.009Z,13.20
2018-06-02T12:19:50.217Z,15.30
2018-06-02T12:20:56.506Z,15.45
2018-06-02T12:22:02.576Z,14.77
2018-06-02T12:23:08.554Z,15.45
2018-06-02T12:24:14.655Z,15.98
2018-06-02T12:25:20.874Z,14.75
2018-06-02T12:26:26.879Z,15.45
2018-06-02T12:27:32.918Z,17.25
2018-06-02T12:28:39.051Z,15.95
2018-06-02T12:29:45.485Z,39.17
2018-06-02T12:30:52.243Z,16.10
2018-06-02T12:31:58.156Z,15.95
2018-06-02T12:33:04.882Z,16.73
2018-06-02T12:34:11.034Z,17.52
2018-06-02T12:35:17.044Z,16.85
2018-06-02T12:36:23.853Z,19.30
2018-06-02T12:37:29.995Z,17.85
2018-06-02T12:38:36.152Z,18.20
2018-06-02T12:39:42.299Z,18.62
2018-06-02T12:40:50.296Z,19.62
2018-06-02T12:41:56.443Z,20.15
2018-06-02T12:43:02.474Z,19.12
2018-06-02T12:44:08.557Z,19.45
2018-06-02T12:45:14.611Z,20.35
2018-06-02T12:46:20.637Z,21.17
2018-06-02T12:47:26.231Z,21.73
2018-06-02T12:48:33.346Z,21.60
2018-06-02T12:49:39.387Z,22.20
2018-06-02T12:50:45.368Z,21.98
2018-06-02T12:51:51.480Z,22.85
2018-06-02T12:52:57.973Z,20.67
2018-06-02T12:54:04.499Z,19.50
2018-06-02T12:55:11.342Z,21.30
2018-06-02T12:56:17.928Z,19.62
2018-06-02T12:57:24.065Z,19.17
2018-06-02T12:58:30.265Z,21.23
2018-06-02T12:59:36.947Z,21.27
2018-06-02T13:00:43.661Z,20.55
2018-06-02T13:01:49.746Z,19.12
2018-06-02T13:02:57.292Z,21.00
2018-06-02T13:04:03.337Z,20.48
2018-06-02T13:05:09.345Z,20.95
2018-06-02T13:06:15.488Z,21.05
2018-06-02T13:07:22.292Z,25.85
2018-06-02T13:08:28.201Z,20.88
2018-06-02T13:09:35.850Z,21.73
2018-06-02T13:10:41.972Z,19.77
2018-06-02T13:11:48.428Z,20.50
2018-06-02T13:12:54.687Z,19.85
2018-06-02T13:14:00.946Z,18.83
2018-06-02T13:15:08.126Z,17.67
2018-06-02T13:16:14.374Z,19.25
2018-06-02T13:17:20.424Z,18.62
2018-06-02T13:18:26.576Z,18.42
2018-06-02T13:19:32.849Z,19.05
2018-06-02T13:20:39.189Z,18.67
2018-06-02T13:21:45.802Z,18.85
2018-06-02T13:22:52.917Z,19.05
2018-06-02T13:23:59.989Z,20.02
2018-06-02T13:25:05.828Z,17.90
2018-06-02T13:26:11.919Z,19.10
2018-06-02T13:27:18.720Z,19.02
2018-06-02T13:28:25.636Z,18.75
2018-06-02T13:29:31.768Z,19.17
2018-06-02T13:30:37.825Z,17.62
2018-06-02T13:31:44.082Z,18.90
2018-06-02T13:32:50.122Z,18.02
2018-06-02T13:33:56.146Z,18.65
2018-06-02T13:35:02.126Z,17.70
2018-06-02T13:36:08.204Z,16.45
2018-06-02T13:37:14.256Z,17.60
2018-06-02T13:38:21.983Z,17.85
2018-06-02T13:39:27.943Z,16.65
2018-06-02T13:40:34.024Z,16.92
2018-06-02T13:41:39.956Z,17.27
2018-06-02T13:42:45.981Z,18.00
2018-06-02T13:43:52.015Z,17.08
2018-06-02T13:44:58.635Z,17.15
2018-06-02T13:46:04.749Z,17.62
2018-06-02T13:47:10.897Z,16.25
2018-06-02T13:48:17.059Z,16.83
2018-06-02T13:49:23.828Z,17.10
2018-06-02T13:50:29.801Z,17.30
2018-06-02T13:51:36.923Z,16.90
2018-06-02T13:52:43.018Z,16.25
2018-06-02T13:53:49.448Z,17.23
2018-06-02T13:54:55.503Z,15.48
2018-06-02T13:56:01.572Z,17.35
2018-06-02T13:57:07.688Z,15.80
2018-06-02T13:58:13.729Z,15.18
2018-06-02T13:59:21.525Z,16.75
2018-06-02T14:00:27.502Z,15.77
2018-06-02T14:01:33.416Z,15.10
2018-06-02T14:02:39.324Z,15.60
2018-06-02T14:03:46.136Z,16.40
2018-06-02T14:04:52.149Z,15.55
2018-06-02T14:05:58.135Z,14.87
2018-06-02T14:07:04.424Z,16.08
2018-06-02T14:08:10.276Z,14.98
2018-06-02T14:09:17.086Z,14.77
2018-06-02T14:10:23.100Z,15.25
2018-06-02T14:11:29.751Z,12.55
2018-06-02T14:12:37.083Z,14.13
2018-06-02T14:13:42.909Z,12.60
2018-06-02T14:14:48.903Z,13.85
2018-06-02T14:15:54.715Z,12.27
2018-06-02T14:17:00.490Z,13.57
2018-06-02T14:18:07.658Z,12.48
2018-06-02T14:19:14.274Z,11.00
2018-06-02T14:20:20.527Z,12.80
2018-06-02T14:21:26.589Z,11.65
2018-06-02T14:22:33.293Z,11.07
2018-06-02T14:23:39.269Z,11.68
2018-06-02T14:24:45.985Z,10.65
2018-06-02T14:25:52.809Z,10.40
2018-06-02T14:26:59.643Z,11.57